sensor_id;sensor_type;location;lat;lon;timestamp;P1;P2;P0
76784;PMS7003;66893;44.316;0.092;2023-07-20T00:00:24;1.25;1.25;1.00
76784;PMS7003;66893;44.316;0.092;2023-07-20T00:02:50;4.00;2.00;1.00
76784;PMS7003;66893;44.316;0.092;2023-07-20T00:05:16;2.00;1.25;1.00
76784;PMS7003;66893;44.316;0.092;2023-07-20T00:07:46;3.00;2.00;1.75
76784;PMS7003;66893;44.316;0.092;2023-07-20T00:10:11;1.25;1.25;1.00
76784;PMS7003;66893;44.316;0.092;2023-07-20T00:12:37;1.25;1.00;1.00
76784;PMS7003;66893;44.316;0.092;2023-07-20T00:15:02;2.00;2.00;1.00
76784;PMS7003;66893;44.316;0.092;2023-07-20T00:17:28;1.50;1.00;1.00
76784;PMS7003;66893;44.316;0.092;2023-07-20T00:19:53;2.00;2.00;1.25
76784;PMS7003;66893;44.316;0.092;2023-07-20T00:22:19;1.00;0.25;0.00
76784;PMS7003;66893;44.316;0.092;2023-07-20T00:24:44;1.25;1.25;1.00
76784;PMS7003;66893;44.316;0.092;2023-07-20T00:27:09;1.25;1.25;1.00
76784;PMS7003;66893;44.316;0.092;2023-07-20T00:29:35;4.00;1.00;1.00
76784;PMS7003;66893;44.316;0.092;2023-07-20T00:32:00;2.00;1.00;0.50
76784;PMS7003;66893;44.316;0.092;2023-07-20T00:34:26;1.00;1.00;0.75
76784;PMS7003;66893;44.316;0.092;2023-07-20T00:36:51;1.75;1.75;1.00
76784;PMS7003;66893;44.316;0.092;2023-07-20T00:39:17;0.00;0.00;0.00
76784;PMS7003;66893;44.316;0.092;2023-07-20T00:41:42;1.00;1.00;0.75
76784;PMS7003;66893;44.316;0.092;2023-07-20T00:44:08;0.00;0.00;0.00
76784;PMS7003;66893;44.316;0.092;2023-07-20T00:46:33;0.50;0.25;0.00
76784;PMS7003;66893;44.316;0.092;2023-07-20T00:48:59;1.00;1.00;0.50
76784;PMS7003;66893;44.316;0.092;2023-07-20T00:51:25;1.00;1.00;0.50
76784;PMS7003;66893;44.316;0.092;2023-07-20T00:53:51;1.00;1.00;0.50
76784;PMS7003;66893;44.316;0.092;2023-07-20T00:56:18;1.00;1.00;0.00
76784;PMS7003;66893;44.316;0.092;2023-07-20T00:58:44;0.50;0.50;0.50
76784;PMS7003;66893;44.316;0.092;2023-07-20T01:01:10;1.00;1.00;0.25
76784;PMS7003;66893;44.316;0.092;2023-07-20T01:03:35;1.50;1.00;0.75
76784;PMS7003;66893;44.316;0.092;2023-07-20T01:14:02;1.00;1.00;0.00
76784;PMS7003;66893;44.316;0.092;2023-07-20T01:16:28;0.25;0.25;0.25
76784;PMS7003;66893;44.316;0.092;2023-07-20T01:18:53;2.00;1.00;0.50
76784;PMS7003;66893;44.316;0.092;2023-07-20T01:21:24;0.75;0.75;0.00
76784;PMS7003;66893;44.316;0.092;2023-07-20T01:26:57;0.25;0.25;0.00
76784;PMS7003;66893;44.316;0.092;2023-07-20T01:32:29;1.00;0.00;0.00
76784;PMS7003;66893;44.316;0.092;2023-07-20T01:34:56;0.00;0.00;0.00
76784;PMS7003;66893;44.316;0.092;2023-07-20T01:37:23;0.25;0.25;0.00
76784;PMS7003;66893;44.316;0.092;2023-07-20T01:39:53;1.25;1.00;0.00
76784;PMS7003;66893;44.316;0.092;2023-07-20T01:42:22;2.00;0.00;0.00
76784;PMS7003;66893;44.316;0.092;2023-07-20T01:44:52;1.25;1.00;0.00
76784;PMS7003;66893;44.316;0.092;2023-07-20T01:47:18;1.00;0.00;0.00
76784;PMS7003;66893;44.316;0.092;2023-07-20T01:49:44;1.00;1.00;1.00
76784;PMS7003;66893;44.316;0.092;2023-07-20T01:52:10;1.25;1.00;0.25
76784;PMS7003;66893;44.316;0.092;2023-07-20T01:54:35;1.00;1.00;1.00
76784;PMS7003;66893;44.316;0.092;2023-07-20T01:57:01;2.00;0.50;0.00
76784;PMS7003;66893;44.316;0.092;2023-07-20T01:59:26;0.00;0.00;0.00
76784;PMS7003;66893;44.316;0.092;2023-07-20T02:01:52;0.00;0.00;0.00
76784;PMS7003;66893;44.316;0.092;2023-07-20T02:04:17;0.75;0.50;0.50
76784;PMS7003;66893;44.316;0.092;2023-07-20T02:06:43;0.25;0.25;0.00
76784;PMS7003;66893;44.316;0.092;2023-07-20T02:09:08;0.00;0.00;0.00
76784;PMS7003;66893;44.316;0.092;2023-07-20T02:11:34;1.00;1.00;1.00
76784;PMS7003;66893;44.316;0.092;2023-07-20T02:13:59;0.00;0.00;0.00
76784;PMS7003;66893;44.316;0.092;2023-07-20T02:16:25;1.00;1.00;0.00
76784;PMS7003;66893;44.316;0.092;2023-07-20T02:18:50;1.75;1.00;0.75
76784;PMS7003;66893;44.316;0.092;2023-07-20T02:21:15;0.00;0.00;0.00
76784;PMS7003;66893;44.316;0.092;2023-07-20T02:23:41;0.00;0.00;0.00
76784;PMS7003;66893;44.316;0.092;2023-07-20T02:26:06;0.00;0.00;0.00
76784;PMS7003;66893;44.316;0.092;2023-07-20T02:28:32;0.00;0.00;0.00
76784;PMS7003;66893;44.316;0.092;2023-07-20T02:30:57;0.00;0.00;0.00
76784;PMS7003;66893;44.316;0.092;2023-07-20T02:33:23;2.00;0.00;0.00
76784;PMS7003;66893;44.316;0.092;2023-07-20T02:35:48;0.00;0.00;0.00
76784;PMS7003;66893;44.316;0.092;2023-07-20T02:38:14;0.50;0.50;0.00
76784;PMS7003;66893;44.316;0.092;2023-07-20T02:40:39;1.75;0.00;0.00
76784;PMS7003;66893;44.316;0.092;2023-07-20T02:43:05;0.00;0.00;0.00
76784;PMS7003;66893;44.316;0.092;2023-07-20T02:45:30;0.00;0.00;0.00
76784;PMS7003;66893;44.316;0.092;2023-07-20T02:47:56;0.00;0.00;0.00
76784;PMS7003;66893;44.316;0.092;2023-07-20T02:50:21;0.25;0.25;0.00
76784;PMS7003;66893;44.316;0.092;2023-07-20T02:52:47;0.00;0.00;0.00
76784;PMS7003;66893;44.316;0.092;2023-07-20T02:55:12;0.00;0.00;0.00
76784;PMS7003;66893;44.316;0.092;2023-07-20T02:57:38;0.75;0.75;0.75
76784;PMS7003;66893;44.316;0.092;2023-07-20T03:00:04;0.25;0.25;0.00
76784;PMS7003;66893;44.316;0.092;2023-07-20T03:02:31;0.00;0.00;0.00
76784;PMS7003;66893;44.316;0.092;2023-07-20T03:04:57;0.00;0.00;0.00
76784;PMS7003;66893;44.316;0.092;2023-07-20T03:07:26;0.00;0.00;0.00
76784;PMS7003;66893;44.316;0.092;2023-07-20T03:09:53;0.50;0.50;0.50
76784;PMS7003;66893;44.316;0.092;2023-07-20T03:12:20;1.00;1.00;0.00
76784;PMS7003;66893;44.316;0.092;2023-07-20T03:14:46;1.50;0.00;0.00
76784;PMS7003;66893;44.316;0.092;2023-07-20T03:17:11;0.00;0.00;0.00
76784;PMS7003;66893;44.316;0.092;2023-07-20T03:19:36;0.00;0.00;0.00
76784;PMS7003;66893;44.316;0.092;2023-07-20T03:22:02;0.25;0.00;0.00
76784;PMS7003;66893;44.316;0.092;2023-07-20T03:24:27;0.00;0.00;0.00
76784;PMS7003;66893;44.316;0.092;2023-07-20T03:26:53;0.00;0.00;0.00
76784;PMS7003;66893;44.316;0.092;2023-07-20T03:29:18;0.50;0.50;0.00
76784;PMS7003;66893;44.316;0.092;2023-07-20T03:31:44;0.00;0.00;0.00
76784;PMS7003;66893;44.316;0.092;2023-07-20T03:34:09;0.50;0.50;0.25
76784;PMS7003;66893;44.316;0.092;2023-07-20T03:36:35;0.00;0.00;0.00
76784;PMS7003;66893;44.316;0.092;2023-07-20T03:39:00;1.00;0.75;0.25
76784;PMS7003;66893;44.316;0.092;2023-07-20T03:41:25;1.00;1.00;0.00
76784;PMS7003;66893;44.316;0.092;2023-07-20T03:43:51;0.75;0.00;0.00
76784;PMS7003;66893;44.316;0.092;2023-07-20T03:46:16;1.00;1.00;1.00
76784;PMS7003;66893;44.316;0.092;2023-07-20T03:48:42;0.00;0.00;0.00
76784;PMS7003;66893;44.316;0.092;2023-07-20T03:51:07;0.00;0.00;0.00
76784;PMS7003;66893;44.316;0.092;2023-07-20T03:53:33;0.00;0.00;0.00
76784;PMS7003;66893;44.316;0.092;2023-07-20T03:55:58;0.25;0.25;0.25
76784;PMS7003;66893;44.316;0.092;2023-07-20T03:58:24;0.00;0.00;0.00
76784;PMS7003;66893;44.316;0.092;2023-07-20T04:00:50;2.00;0.00;0.00
76784;PMS7003;66893;44.316;0.092;2023-07-20T04:03:16;1.00;0.75;0.75
76784;PMS7003;66893;44.316;0.092;2023-07-20T04:05:43;0.75;0.00;0.00
76784;PMS7003;66893;44.316;0.092;2023-07-20T04:08:09;1.00;0.00;0.00
76784;PMS7003;66893;44.316;0.092;2023-07-20T04:10:36;1.00;1.00;0.00
76784;PMS7003;66893;44.316;0.092;2023-07-20T04:13:03;0.00;0.00;0.00
76784;PMS7003;66893;44.316;0.092;2023-07-20T04:15:28;1.00;0.25;0.00
76784;PMS7003;66893;44.316;0.092;2023-07-20T04:17:54;1.25;1.25;0.75
76784;PMS7003;66893;44.316;0.092;2023-07-20T04:20:21;0.00;0.00;0.00
76784;PMS7003;66893;44.316;0.092;2023-07-20T04:22:47;1.00;1.00;0.00
76784;PMS7003;66893;44.316;0.092;2023-07-20T04:25:12;0.00;0.00;0.00
76784;PMS7003;66893;44.316;0.092;2023-07-20T04:27:38;0.00;0.00;0.00
76784;PMS7003;66893;44.316;0.092;2023-07-20T04:30:04;0.75;0.75;0.75
76784;PMS7003;66893;44.316;0.092;2023-07-20T04:32:31;0.25;0.25;0.25
76784;PMS7003;66893;44.316;0.092;2023-07-20T04:34:58;0.50;0.50;0.50
76784;PMS7003;66893;44.316;0.092;2023-07-20T04:37:24;0.00;0.00;0.00
76784;PMS7003;66893;44.316;0.092;2023-07-20T04:39:50;1.00;1.00;1.00
76784;PMS7003;66893;44.316;0.092;2023-07-20T04:42:15;1.50;1.00;1.00
76784;PMS7003;66893;44.316;0.092;2023-07-20T04:44:41;1.00;1.00;0.25
76784;PMS7003;66893;44.316;0.092;2023-07-20T04:47:06;1.00;1.00;1.00
76784;PMS7003;66893;44.316;0.092;2023-07-20T04:49:33;1.00;1.00;0.00
76784;PMS7003;66893;44.316;0.092;2023-07-20T04:51:59;0.25;0.25;0.00
76784;PMS7003;66893;44.316;0.092;2023-07-20T04:54:24;0.00;0.00;0.00
76784;PMS7003;66893;44.316;0.092;2023-07-20T04:56:52;1.00;0.00;0.00
76784;PMS7003;66893;44.316;0.092;2023-07-20T04:59:18;0.00;0.00;0.00
76784;PMS7003;66893;44.316;0.092;2023-07-20T05:01:43;1.00;1.00;1.00
76784;PMS7003;66893;44.316;0.092;2023-07-20T05:04:09;0.00;0.00;0.00
76784;PMS7003;66893;44.316;0.092;2023-07-20T05:06:34;0.00;0.00;0.00
76784;PMS7003;66893;44.316;0.092;2023-07-20T05:09:00;2.00;0.50;0.00
76784;PMS7003;66893;44.316;0.092;2023-07-20T05:11:25;2.50;0.50;0.50
76784;PMS7003;66893;44.316;0.092;2023-07-20T05:13:51;1.25;1.00;0.50
76784;PMS7003;66893;44.316;0.092;2023-07-20T05:16:16;2.00;1.00;0.50
76784;PMS7003;66893;44.316;0.092;2023-07-20T05:18:42;1.00;0.00;0.00
76784;PMS7003;66893;44.316;0.092;2023-07-20T05:21:07;0.25;0.25;0.00
76784;PMS7003;66893;44.316;0.092;2023-07-20T05:23:33;1.00;1.00;0.25
76784;PMS7003;66893;44.316;0.092;2023-07-20T05:25:59;0.00;0.00;0.00
76784;PMS7003;66893;44.316;0.092;2023-07-20T05:28:25;0.00;0.00;0.00
76784;PMS7003;66893;44.316;0.092;2023-07-20T05:30:54;3.00;1.00;1.00
76784;PMS7003;66893;44.316;0.092;2023-07-20T05:33:20;1.00;1.00;1.00
76784;PMS7003;66893;44.316;0.092;2023-07-20T05:35:46;2.75;1.00;1.00
76784;PMS7003;66893;44.316;0.092;2023-07-20T05:38:12;1.00;1.00;1.00
76784;PMS7003;66893;44.316;0.092;2023-07-20T05:40:38;1.00;1.00;0.75
76784;PMS7003;66893;44.316;0.092;2023-07-20T05:43:05;2.25;1.00;1.00
76784;PMS7003;66893;44.316;0.092;2023-07-20T05:45:30;1.25;1.25;1.00
76784;PMS7003;66893;44.316;0.092;2023-07-20T05:47:56;1.75;1.75;1.00
76784;PMS7003;66893;44.316;0.092;2023-07-20T05:50:21;3.75;1.25;1.00
76784;PMS7003;66893;44.316;0.092;2023-07-20T05:52:47;2.25;1.00;1.00
76784;PMS7003;66893;44.316;0.092;2023-07-20T05:55:13;3.25;2.00;1.50
76784;PMS7003;66893;44.316;0.092;2023-07-20T05:57:38;3.00;2.00;1.25
76784;PMS7003;66893;44.316;0.092;2023-07-20T06:00:07;1.25;1.25;1.00
76784;PMS7003;66893;44.316;0.092;2023-07-20T06:02:33;1.50;1.00;1.00
76784;PMS7003;66893;44.316;0.092;2023-07-20T06:04:58;1.00;1.00;1.00
76784;PMS7003;66893;44.316;0.092;2023-07-20T06:07:24;2.00;2.00;1.00
76784;PMS7003;66893;44.316;0.092;2023-07-20T06:09:49;1.25;1.25;1.00
76784;PMS7003;66893;44.316;0.092;2023-07-20T06:12:15;1.25;1.00;1.00
76784;PMS7003;66893;44.316;0.092;2023-07-20T06:14:40;11.00;4.25;2.50
76784;PMS7003;66893;44.316;0.092;2023-07-20T06:17:06;2.00;1.50;1.25
76784;PMS7003;66893;44.316;0.092;2023-07-20T06:19:31;3.00;2.00;1.00
76784;PMS7003;66893;44.316;0.092;2023-07-20T06:21:57;1.00;1.00;0.50
76784;PMS7003;66893;44.316;0.092;2023-07-20T06:24:22;1.00;1.00;1.00
76784;PMS7003;66893;44.316;0.092;2023-07-20T06:26:47;3.00;1.50;1.00
76784;PMS7003;66893;44.316;0.092;2023-07-20T06:29:13;3.25;2.00;1.00
76784;PMS7003;66893;44.316;0.092;2023-07-20T06:31:38;3.00;1.25;1.00
76784;PMS7003;66893;44.316;0.092;2023-07-20T06:34:04;3.00;1.50;1.00
76784;PMS7003;66893;44.316;0.092;2023-07-20T06:36:29;2.00;0.75;0.50
76784;PMS7003;66893;44.316;0.092;2023-07-20T06:38:55;2.00;2.00;1.00
76784;PMS7003;66893;44.316;0.092;2023-07-20T06:41:21;1.00;1.00;0.00
76784;PMS7003;66893;44.316;0.092;2023-07-20T06:43:47;2.00;2.00;2.00
76784;PMS7003;66893;44.316;0.092;2023-07-20T06:46:13;2.25;1.75;1.25
76784;PMS7003;66893;44.316;0.092;2023-07-20T06:48:39;1.75;1.75;1.00
76784;PMS7003;66893;44.316;0.092;2023-07-20T06:51:04;4.00;3.00;2.00
76784;PMS7003;66893;44.316;0.092;2023-07-20T06:53:30;1.00;1.00;1.00
76784;PMS7003;66893;44.316;0.092;2023-07-20T06:55:55;1.00;1.00;1.00
76784;PMS7003;66893;44.316;0.092;2023-07-20T06:58:24;1.25;1.00;0.25
76784;PMS7003;66893;44.316;0.092;2023-07-20T07:00:50;2.00;2.00;1.00
76784;PMS7003;66893;44.316;0.092;2023-07-20T07:03:16;1.00;1.00;0.75
76784;PMS7003;66893;44.316;0.092;2023-07-20T07:05:41;2.75;2.00;2.00
76784;PMS7003;66893;44.316;0.092;2023-07-20T07:08:08;2.00;2.00;1.00
76784;PMS7003;66893;44.316;0.092;2023-07-20T07:10:35;2.25;2.00;1.00
76784;PMS7003;66893;44.316;0.092;2023-07-20T07:13:01;3.25;1.00;1.00
76784;PMS7003;66893;44.316;0.092;2023-07-20T07:15:27;2.00;2.00;1.25
76784;PMS7003;66893;44.316;0.092;2023-07-20T07:17:52;2.00;1.00;0.75
76784;PMS7003;66893;44.316;0.092;2023-07-20T07:20:18;3.00;1.00;1.00
76784;PMS7003;66893;44.316;0.092;2023-07-20T07:22:43;1.00;1.00;1.00
76784;PMS7003;66893;44.316;0.092;2023-07-20T07:25:10;1.25;1.25;1.00
76784;PMS7003;66893;44.316;0.092;2023-07-20T07:27:35;1.00;1.00;1.00
76784;PMS7003;66893;44.316;0.092;2023-07-20T07:30:01;2.00;2.00;1.00
76784;PMS7003;66893;44.316;0.092;2023-07-20T07:32:30;1.00;1.00;1.00
76784;PMS7003;66893;44.316;0.092;2023-07-20T07:34:56;1.00;1.00;1.00
76784;PMS7003;66893;44.316;0.092;2023-07-20T07:37:23;1.00;1.00;1.00
76784;PMS7003;66893;44.316;0.092;2023-07-20T07:39:49;1.25;1.00;1.00
76784;PMS7003;66893;44.316;0.092;2023-07-20T07:42:14;0.50;0.50;0.50
76784;PMS7003;66893;44.316;0.092;2023-07-20T07:44:40;1.00;1.00;1.00
76784;PMS7003;66893;44.316;0.092;2023-07-20T07:47:05;1.00;1.00;0.00
76784;PMS7003;66893;44.316;0.092;2023-07-20T07:49:31;1.00;1.00;1.00
76784;PMS7003;66893;44.316;0.092;2023-07-20T07:51:56;2.50;1.50;1.00
76784;PMS7003;66893;44.316;0.092;2023-07-20T07:54:22;1.00;1.00;1.00
76784;PMS7003;66893;44.316;0.092;2023-07-20T07:56:47;1.00;1.00;1.00
76784;PMS7003;66893;44.316;0.092;2023-07-20T07:59:13;2.00;2.00;1.00
76784;PMS7003;66893;44.316;0.092;2023-07-20T08:01:38;2.00;2.00;1.00
76784;PMS7003;66893;44.316;0.092;2023-07-20T08:04:04;2.00;2.00;2.00
76784;PMS7003;66893;44.316;0.092;2023-07-20T08:06:29;1.75;1.25;1.00
76784;PMS7003;66893;44.316;0.092;2023-07-20T08:08:56;2.00;2.00;1.00
76784;PMS7003;66893;44.316;0.092;2023-07-20T08:11:21;2.50;1.50;1.25
76784;PMS7003;66893;44.316;0.092;2023-07-20T08:13:47;2.00;2.00;1.00
76784;PMS7003;66893;44.316;0.092;2023-07-20T08:16:13;2.50;2.00;1.50
76784;PMS7003;66893;44.316;0.092;2023-07-20T08:18:39;2.25;2.25;1.50
76784;PMS7003;66893;44.316;0.092;2023-07-20T08:21:04;2.25;1.75;1.00
76784;PMS7003;66893;44.316;0.092;2023-07-20T08:23:29;2.00;2.00;1.00
76784;PMS7003;66893;44.316;0.092;2023-07-20T08:25:55;4.75;1.00;1.00
76784;PMS7003;66893;44.316;0.092;2023-07-20T08:28:20;1.50;1.00;1.00
76784;PMS7003;66893;44.316;0.092;2023-07-20T08:30:47;2.00;2.00;1.00
76784;PMS7003;66893;44.316;0.092;2023-07-20T08:33:13;2.00;1.50;1.00
76784;PMS7003;66893;44.316;0.092;2023-07-20T08:35:40;4.00;1.25;0.75
76784;PMS7003;66893;44.316;0.092;2023-07-20T08:38:05;1.00;1.00;1.00
76784;PMS7003;66893;44.316;0.092;2023-07-20T08:40:32;2.25;2.00;1.25
76784;PMS7003;66893;44.316;0.092;2023-07-20T08:42:58;2.00;2.00;1.00
76784;PMS7003;66893;44.316;0.092;2023-07-20T08:45:28;3.25;1.50;1.00
76784;PMS7003;66893;44.316;0.092;2023-07-20T08:47:58;2.00;2.00;1.00
76784;PMS7003;66893;44.316;0.092;2023-07-20T08:50:25;1.75;1.75;1.50
76784;PMS7003;66893;44.316;0.092;2023-07-20T08:52:52;2.00;0.50;0.00
76784;PMS7003;66893;44.316;0.092;2023-07-20T08:55:18;1.00;1.00;0.75
76784;PMS7003;66893;44.316;0.092;2023-07-20T08:57:45;1.00;1.00;1.00
76784;PMS7003;66893;44.316;0.092;2023-07-20T09:00:14;2.00;1.00;0.25
76784;PMS7003;66893;44.316;0.092;2023-07-20T09:02:40;0.00;0.00;0.00
76784;PMS7003;66893;44.316;0.092;2023-07-20T09:05:10;0.00;0.00;0.00
76784;PMS7003;66893;44.316;0.092;2023-07-20T09:07:35;1.00;1.00;1.00
76784;PMS7003;66893;44.316;0.092;2023-07-20T09:10:02;1.00;1.00;1.00
76784;PMS7003;66893;44.316;0.092;2023-07-20T09:12:40;1.00;1.00;0.75
76784;PMS7003;66893;44.316;0.092;2023-07-20T09:15:07;0.75;0.75;0.75
76784;PMS7003;66893;44.316;0.092;2023-07-20T09:17:34;1.00;1.00;1.00
76784;PMS7003;66893;44.316;0.092;2023-07-20T09:20:03;0.50;0.50;0.50
76784;PMS7003;66893;44.316;0.092;2023-07-20T09:22:36;1.00;1.00;1.00
76784;PMS7003;66893;44.316;0.092;2023-07-20T09:25:14;1.00;1.00;1.00
76784;PMS7003;66893;44.316;0.092;2023-07-20T09:27:42;1.00;1.00;1.00
76784;PMS7003;66893;44.316;0.092;2023-07-20T09:30:13;1.00;1.00;1.00
76784;PMS7003;66893;44.316;0.092;2023-07-20T09:32:40;3.75;1.50;1.00
76784;PMS7003;66893;44.316;0.092;2023-07-20T09:35:17;2.00;2.00;1.00
76784;PMS7003;66893;44.316;0.092;2023-07-20T09:37:49;1.00;1.00;1.00
76784;PMS7003;66893;44.316;0.092;2023-07-20T09:40:23;3.75;1.50;1.00
76784;PMS7003;66893;44.316;0.092;2023-07-20T09:42:50;2.25;2.00;1.00
76784;PMS7003;66893;44.316;0.092;2023-07-20T09:45:24;4.00;2.00;1.00
76784;PMS7003;66893;44.316;0.092;2023-07-20T09:47:59;0.50;0.00;0.00
76784;PMS7003;66893;44.316;0.092;2023-07-20T09:50:28;1.50;1.50;1.00
76784;PMS7003;66893;44.316;0.092;2023-07-20T09:52:54;1.25;1.25;1.00
76784;PMS7003;66893;44.316;0.092;2023-07-20T09:55:21;1.00;1.00;1.00
76784;PMS7003;66893;44.316;0.092;2023-07-20T09:57:46;5.00;2.00;1.00
76784;PMS7003;66893;44.316;0.092;2023-07-20T10:00:13;0.75;0.75;0.75
76784;PMS7003;66893;44.316;0.092;2023-07-20T10:02:48;2.00;2.00;1.00
76784;PMS7003;66893;44.316;0.092;2023-07-20T10:05:16;1.00;1.00;1.00
76784;PMS7003;66893;44.316;0.092;2023-07-20T10:07:49;1.00;1.00;1.00
76784;PMS7003;66893;44.316;0.092;2023-07-20T10:10:16;1.00;1.00;1.00
76784;PMS7003;66893;44.316;0.092;2023-07-20T10:12:47;1.00;1.00;0.75
76784;PMS7003;66893;44.316;0.092;2023-07-20T10:15:46;0.75;0.75;0.75
76784;PMS7003;66893;44.316;0.092;2023-07-20T10:18:14;1.50;1.50;1.00
76784;PMS7003;66893;44.316;0.092;2023-07-20T10:20:48;2.00;1.00;1.00
76784;PMS7003;66893;44.316;0.092;2023-07-20T10:23:16;1.00;1.00;0.75
76784;PMS7003;66893;44.316;0.092;2023-07-20T10:25:42;1.00;1.00;1.00
76784;PMS7003;66893;44.316;0.092;2023-07-20T10:28:08;1.75;1.00;1.00
76784;PMS7003;66893;44.316;0.092;2023-07-20T10:30:35;0.75;0.75;0.00
76784;PMS7003;66893;44.316;0.092;2023-07-20T10:33:02;3.50;1.25;1.00
76784;PMS7003;66893;44.316;0.092;2023-07-20T10:35:28;11.75;5.75;2.00
76784;PMS7003;66893;44.316;0.092;2023-07-20T10:37:54;12.75;3.00;2.00
76784;PMS7003;66893;44.316;0.092;2023-07-20T10:40:26;14.00;7.00;4.00
76784;PMS7003;66893;44.316;0.092;2023-07-20T10:45:35;7.00;4.25;2.00
76784;PMS7003;66893;44.316;0.092;2023-07-20T10:48:04;6.50;3.50;3.00
76784;PMS7003;66893;44.316;0.092;2023-07-20T10:50:31;10.75;3.00;3.00
76784;PMS7003;66893;44.316;0.092;2023-07-20T10:53:04;3.50;3.00;2.00
76784;PMS7003;66893;44.316;0.092;2023-07-20T10:55:35;4.75;4.00;2.75
76784;PMS7003;66893;44.316;0.092;2023-07-20T10:58:07;4.75;3.00;2.00
76784;PMS7003;66893;44.316;0.092;2023-07-20T11:00:56;5.25;3.00;2.75
76784;PMS7003;66893;44.316;0.092;2023-07-20T11:03:26;5.00;4.00;2.50
76784;PMS7003;66893;44.316;0.092;2023-07-20T11:05:56;3.25;1.75;1.25
76784;PMS7003;66893;44.316;0.092;2023-07-20T11:08:38;3.00;2.00;2.00
76784;PMS7003;66893;44.316;0.092;2023-07-20T11:11:25;2.75;2.75;2.00
76784;PMS7003;66893;44.316;0.092;2023-07-20T11:19:13;4.00;3.00;2.75
76784;PMS7003;66893;44.316;0.092;2023-07-20T11:21:59;3.00;3.00;2.00
76784;PMS7003;66893;44.316;0.092;2023-07-20T11:24:24;3.00;3.00;2.25
76784;PMS7003;66893;44.316;0.092;2023-07-20T11:26:50;4.50;3.00;2.25
76784;PMS7003;66893;44.316;0.092;2023-07-20T11:29:18;4.25;3.50;3.00
76784;PMS7003;66893;44.316;0.092;2023-07-20T11:31:45;4.00;4.00;2.00
76784;PMS7003;66893;44.316;0.092;2023-07-20T11:34:12;2.00;2.00;1.50
76784;PMS7003;66893;44.316;0.092;2023-07-20T11:36:43;6.00;4.25;3.75
76784;PMS7003;66893;44.316;0.092;2023-07-20T11:39:11;5.75;4.00;2.50
76784;PMS7003;66893;44.316;0.092;2023-07-20T11:41:38;6.00;3.00;3.00
76784;PMS7003;66893;44.316;0.092;2023-07-20T11:44:05;3.50;3.00;2.50
76784;PMS7003;66893;44.316;0.092;2023-07-20T11:46:38;4.50;4.50;4.00
76784;PMS7003;66893;44.316;0.092;2023-07-20T11:49:04;4.50;3.75;3.25
76784;PMS7003;66893;44.316;0.092;2023-07-20T11:51:30;4.00;4.00;3.00
76784;PMS7003;66893;44.316;0.092;2023-07-20T11:53:56;5.75;4.50;3.25
76784;PMS7003;66893;44.316;0.092;2023-07-20T11:56:23;3.00;3.00;2.50
76784;PMS7003;66893;44.316;0.092;2023-07-20T11:58:49;4.00;4.00;3.00
76784;PMS7003;66893;44.316;0.092;2023-07-20T12:01:15;3.75;3.25;3.00
76784;PMS7003;66893;44.316;0.092;2023-07-20T12:03:43;3.50;3.50;2.25
76784;PMS7003;66893;44.316;0.092;2023-07-20T12:06:09;6.00;4.00;3.00
76784;PMS7003;66893;44.316;0.092;2023-07-20T12:08:42;3.00;3.00;2.25
76784;PMS7003;66893;44.316;0.092;2023-07-20T12:11:08;3.00;3.00;2.50
76784;PMS7003;66893;44.316;0.092;2023-07-20T12:13:37;5.00;3.50;3.00
76784;PMS7003;66893;44.316;0.092;2023-07-20T12:16:08;4.50;3.75;3.00
76784;PMS7003;66893;44.316;0.092;2023-07-20T12:18:35;6.25;4.75;3.50
76784;PMS7003;66893;44.316;0.092;2023-07-20T12:21:01;5.00;4.75;3.00
76784;PMS7003;66893;44.316;0.092;2023-07-20T12:23:34;3.50;3.00;2.50
76784;PMS7003;66893;44.316;0.092;2023-07-20T12:26:01;5.25;4.00;3.50
76784;PMS7003;66893;44.316;0.092;2023-07-20T12:28:27;3.25;3.25;3.00
76784;PMS7003;66893;44.316;0.092;2023-07-20T12:30:53;4.00;3.00;2.25
76784;PMS7003;66893;44.316;0.092;2023-07-20T12:33:21;4.00;4.00;3.00
76784;PMS7003;66893;44.316;0.092;2023-07-20T12:35:47;4.25;4.25;3.00
76784;PMS7003;66893;44.316;0.092;2023-07-20T12:38:13;4.50;3.25;2.25
76784;PMS7003;66893;44.316;0.092;2023-07-20T12:40:39;4.00;3.75;2.75
76784;PMS7003;66893;44.316;0.092;2023-07-20T12:43:05;6.25;3.25;2.75
76784;PMS7003;66893;44.316;0.092;2023-07-20T12:45:32;3.50;3.50;3.00
76784;PMS7003;66893;44.316;0.092;2023-07-20T12:47:58;5.50;4.00;3.00
76784;PMS7003;66893;44.316;0.092;2023-07-20T12:50:24;6.00;4.00;2.50
76784;PMS7003;66893;44.316;0.092;2023-07-20T12:52:50;3.00;3.00;3.00
76784;PMS7003;66893;44.316;0.092;2023-07-20T12:55:15;4.00;3.00;2.75
76784;PMS7003;66893;44.316;0.092;2023-07-20T12:57:41;4.00;4.00;3.00
76784;PMS7003;66893;44.316;0.092;2023-07-20T13:00:08;3.00;3.00;2.25
76784;PMS7003;66893;44.316;0.092;2023-07-20T13:02:35;4.25;4.00;3.00
76784;PMS7003;66893;44.316;0.092;2023-07-20T13:05:01;3.00;3.00;3.00
76784;PMS7003;66893;44.316;0.092;2023-07-20T13:07:31;4.75;4.00;2.25
76784;PMS7003;66893;44.316;0.092;2023-07-20T13:09:59;4.50;3.50;3.00
76784;PMS7003;66893;44.316;0.092;2023-07-20T13:12:25;4.25;4.00;3.00
76784;PMS7003;66893;44.316;0.092;2023-07-20T13:14:52;5.25;3.75;3.00
76784;PMS7003;66893;44.316;0.092;2023-07-20T13:17:18;4.00;4.00;2.25
76784;PMS7003;66893;44.316;0.092;2023-07-20T13:19:43;5.50;3.50;3.00
76784;PMS7003;66893;44.316;0.092;2023-07-20T13:22:08;4.75;4.75;3.00
76784;PMS7003;66893;44.316;0.092;2023-07-20T13:24:34;6.00;2.00;2.00
76784;PMS7003;66893;44.316;0.092;2023-07-20T13:26:59;3.00;2.00;2.00
76784;PMS7003;66893;44.316;0.092;2023-07-20T13:29:25;4.00;2.00;2.00
76784;PMS7003;66893;44.316;0.092;2023-07-20T13:31:50;2.00;2.00;2.00
76784;PMS7003;66893;44.316;0.092;2023-07-20T13:34:16;3.25;3.25;2.25
76784;PMS7003;66893;44.316;0.092;2023-07-20T13:36:41;3.50;3.50;3.00
76784;PMS7003;66893;44.316;0.092;2023-07-20T13:39:08;3.75;3.75;3.00
76784;PMS7003;66893;44.316;0.092;2023-07-20T13:41:34;3.50;3.50;3.00
76784;PMS7003;66893;44.316;0.092;2023-07-20T13:43:59;5.00;3.25;3.00
76784;PMS7003;66893;44.316;0.092;2023-07-20T13:46:25;5.00;3.00;2.00
76784;PMS7003;66893;44.316;0.092;2023-07-20T13:48:50;4.00;3.00;2.00
76784;PMS7003;66893;44.316;0.092;2023-07-20T13:51:16;3.50;3.50;3.00
76784;PMS7003;66893;44.316;0.092;2023-07-20T13:53:41;3.00;3.00;2.00
76784;PMS7003;66893;44.316;0.092;2023-07-20T13:56:07;4.00;4.00;3.00
76784;PMS7003;66893;44.316;0.092;2023-07-20T13:58:32;3.00;3.00;2.00
76784;PMS7003;66893;44.316;0.092;2023-07-20T14:00:58;4.00;4.00;3.00
76784;PMS7003;66893;44.316;0.092;2023-07-20T14:03:23;4.25;3.00;2.00
76784;PMS7003;66893;44.316;0.092;2023-07-20T14:05:49;4.00;2.75;2.25
76784;PMS7003;66893;44.316;0.092;2023-07-20T14:08:15;3.25;3.25;2.00
76784;PMS7003;66893;44.316;0.092;2023-07-20T14:10:41;4.00;4.00;4.00
76784;PMS7003;66893;44.316;0.092;2023-07-20T14:13:06;3.00;3.00;2.00
76784;PMS7003;66893;44.316;0.092;2023-07-20T14:15:33;4.00;3.00;2.75
76784;PMS7003;66893;44.316;0.092;2023-07-20T14:18:00;2.00;2.00;2.00
76784;PMS7003;66893;44.316;0.092;2023-07-20T14:20:25;2.50;2.50;2.25
76784;PMS7003;66893;44.316;0.092;2023-07-20T14:22:51;7.00;4.00;3.50
76784;PMS7003;66893;44.316;0.092;2023-07-20T14:25:16;4.25;3.50;3.00
76784;PMS7003;66893;44.316;0.092;2023-07-20T14:27:41;5.25;3.50;2.50
76784;PMS7003;66893;44.316;0.092;2023-07-20T14:30:07;4.50;4.50;3.00
76784;PMS7003;66893;44.316;0.092;2023-07-20T14:32:34;2.75;2.75;2.00
76784;PMS7003;66893;44.316;0.092;2023-07-20T14:34:59;3.25;3.25;3.00
76784;PMS7003;66893;44.316;0.092;2023-07-20T14:37:25;3.75;3.00;2.50
76784;PMS7003;66893;44.316;0.092;2023-07-20T14:39:50;3.75;2.75;2.00
76784;PMS7003;66893;44.316;0.092;2023-07-20T14:42:15;3.00;3.00;2.00